sensor_id;sensor_type;location;lat;lon;timestamp;temperature;humidity
21207;DHT22;10761;48.532;8.026;2023-06-10T00:00:12;19.30;1.00
21207;DHT22;10761;48.532;8.026;2023-06-10T00:02:40;19.20;1.00
21207;DHT22;10761;48.532;8.026;2023-06-10T00:05:07;19.20;1.00
21207;DHT22;10761;48.532;8.026;2023-06-10T00:07:35;19.10;1.00
21207;DHT22;10761;48.532;8.026;2023-06-10T00:10:07;19.10;1.00
21207;DHT22;10761;48.532;8.026;2023-06-10T00:12:33;19.10;1.00
21207;DHT22;10761;48.532;8.026;2023-06-10T00:15:06;19.10;1.00
21207;DHT22;10761;48.532;8.026;2023-06-10T00:17:32;19.10;1.00
21207;DHT22;10761;48.532;8.026;2023-06-10T00:19:58;18.90;1.00
21207;DHT22;10761;48.532;8.026;2023-06-10T00:22:24;18.90;1.00
21207;DHT22;10761;48.532;8.026;2023-06-10T00:24:55;18.80;1.00
21207;DHT22;10761;48.532;8.026;2023-06-10T00:27:21;18.80;1.00
21207;DHT22;10761;48.532;8.026;2023-06-10T00:29:47;18.70;1.00
21207;DHT22;10761;48.532;8.026;2023-06-10T00:32:12;18.60;99.90
21207;DHT22;10761;48.532;8.026;2023-06-10T00:34:38;18.60;1.00
21207;DHT22;10761;48.532;8.026;2023-06-10T00:37:03;18.50;1.00
21207;DHT22;10761;48.532;8.026;2023-06-10T00:39:29;18.40;99.90
21207;DHT22;10761;48.532;8.026;2023-06-10T00:41:55;18.40;99.90
21207;DHT22;10761;48.532;8.026;2023-06-10T00:44:20;18.40;99.90
21207;DHT22;10761;48.532;8.026;2023-06-10T00:46:46;18.40;99.90
21207;DHT22;10761;48.532;8.026;2023-06-10T00:49:12;18.30;99.90
21207;DHT22;10761;48.532;8.026;2023-06-10T00:51:37;18.30;1.00
21207;DHT22;10761;48.532;8.026;2023-06-10T00:54:04;18.30;99.90
21207;DHT22;10761;48.532;8.026;2023-06-10T00:56:30;18.30;99.90
21207;DHT22;10761;48.532;8.026;2023-06-10T00:58:57;18.20;99.90
21207;DHT22;10761;48.532;8.026;2023-06-10T01:01:22;18.20;99.90
21207;DHT22;10761;48.532;8.026;2023-06-10T01:03:49;18.10;99.90
21207;DHT22;10761;48.532;8.026;2023-06-10T01:06:36;18.00;1.00
21207;DHT22;10761;48.532;8.026;2023-06-10T01:09:18;17.90;1.00
21207;DHT22;10761;48.532;8.026;2023-06-10T01:14:29;17.90;1.00
21207;DHT22;10761;48.532;8.026;2023-06-10T01:16:57;18.00;99.90
21207;DHT22;10761;48.532;8.026;2023-06-10T01:19:23;18.10;99.90
21207;DHT22;10761;48.532;8.026;2023-06-10T01:21:50;18.30;13.70
21207;DHT22;10761;48.532;8.026;2023-06-10T01:24:18;18.50;1.00
21207;DHT22;10761;48.532;8.026;2023-06-10T01:26:45;18.60;1.00
21207;DHT22;10761;48.532;8.026;2023-06-10T01:29:34;18.70;1.00
21207;DHT22;10761;48.532;8.026;2023-06-10T01:32:12;18.80;1.00
21207;DHT22;10761;48.532;8.026;2023-06-10T01:34:41;18.90;1.00
21207;DHT22;10761;48.532;8.026;2023-06-10T01:37:10;18.90;1.00
21207;DHT22;10761;48.532;8.026;2023-06-10T01:39:36;19.00;1.00
21207;DHT22;10761;48.532;8.026;2023-06-10T01:42:03;19.00;1.00
21207;DHT22;10761;48.532;8.026;2023-06-10T01:44:30;18.90;1.00
21207;DHT22;10761;48.532;8.026;2023-06-10T01:46:55;18.80;1.00
21207;DHT22;10761;48.532;8.026;2023-06-10T01:49:21;18.70;1.00
21207;DHT22;10761;48.532;8.026;2023-06-10T01:51:49;18.50;1.00
21207;DHT22;10761;48.532;8.026;2023-06-10T01:54:15;18.40;1.00
21207;DHT22;10761;48.532;8.026;2023-06-10T01:56:40;18.30;1.00
21207;DHT22;10761;48.532;8.026;2023-06-10T01:59:06;18.00;1.00
21207;DHT22;10761;48.532;8.026;2023-06-10T02:01:31;17.70;1.00
21207;DHT22;10761;48.532;8.026;2023-06-10T02:03:57;17.50;1.00
21207;DHT22;10761;48.532;8.026;2023-06-10T02:06:23;17.40;99.90
21207;DHT22;10761;48.532;8.026;2023-06-10T02:08:49;17.30;1.00
21207;DHT22;10761;48.532;8.026;2023-06-10T02:11:14;17.20;1.00
21207;DHT22;10761;48.532;8.026;2023-06-10T02:13:40;17.10;1.00
21207;DHT22;10761;48.532;8.026;2023-06-10T02:16:05;17.00;99.90
21207;DHT22;10761;48.532;8.026;2023-06-10T02:18:31;16.90;86.00
21207;DHT22;10761;48.532;8.026;2023-06-10T02:20:57;16.80;99.90
21207;DHT22;10761;48.532;8.026;2023-06-10T02:23:22;16.80;1.00
21207;DHT22;10761;48.532;8.026;2023-06-10T02:25:48;16.70;1.00
21207;DHT22;10761;48.532;8.026;2023-06-10T02:28:14;16.70;1.00
21207;DHT22;10761;48.532;8.026;2023-06-10T02:30:41;16.60;1.00
21207;DHT22;10761;48.532;8.026;2023-06-10T02:33:07;16.60;1.00
21207;DHT22;10761;48.532;8.026;2023-06-10T02:35:39;16.70;1.00
21207;DHT22;10761;48.532;8.026;2023-06-10T02:38:05;16.70;1.00
21207;DHT22;10761;48.532;8.026;2023-06-10T02:40:31;16.60;99.90
21207;DHT22;10761;48.532;8.026;2023-06-10T02:42:57;16.60;35.10
21207;DHT22;10761;48.532;8.026;2023-06-10T02:45:23;16.50;50.60
21207;DHT22;10761;48.532;8.026;2023-06-10T02:47:49;16.40;99.90
21207;DHT22;10761;48.532;8.026;2023-06-10T02:50:15;16.30;99.90
21207;DHT22;10761;48.532;8.026;2023-06-10T02:52:40;16.20;1.00
21207;DHT22;10761;48.532;8.026;2023-06-10T02:55:06;16.20;1.00
21207;DHT22;10761;48.532;8.026;2023-06-10T02:57:32;16.10;99.90
21207;DHT22;10761;48.532;8.026;2023-06-10T02:59:58;16.00;1.00
21207;DHT22;10761;48.532;8.026;2023-06-10T03:02:25;16.00;99.90
21207;DHT22;10761;48.532;8.026;2023-06-10T03:04:55;15.90;1.00
21207;DHT22;10761;48.532;8.026;2023-06-10T03:07:21;15.90;99.90
21207;DHT22;10761;48.532;8.026;2023-06-10T03:09:47;15.80;1.00
21207;DHT22;10761;48.532;8.026;2023-06-10T03:12:13;15.80;99.90
21207;DHT22;10761;48.532;8.026;2023-06-10T03:14:38;15.70;1.00
21207;DHT22;10761;48.532;8.026;2023-06-10T03:17:04;15.70;1.00
21207;DHT22;10761;48.532;8.026;2023-06-10T03:19:30;15.60;99.90
21207;DHT22;10761;48.532;8.026;2023-06-10T03:22:13;15.60;1.00
21207;DHT22;10761;48.532;8.026;2023-06-10T03:24:39;15.50;99.90
21207;DHT22;10761;48.532;8.026;2023-06-10T03:27:10;15.50;1.00
21207;DHT22;10761;48.532;8.026;2023-06-10T03:29:36;15.50;99.90
21207;DHT22;10761;48.532;8.026;2023-06-10T03:32:02;15.50;99.90
21207;DHT22;10761;48.532;8.026;2023-06-10T03:34:28;15.40;1.00
21207;DHT22;10761;48.532;8.026;2023-06-10T03:36:55;15.50;1.00
21207;DHT22;10761;48.532;8.026;2023-06-10T03:39:21;15.40;1.00
21207;DHT22;10761;48.532;8.026;2023-06-10T03:41:47;15.40;1.00
21207;DHT22;10761;48.532;8.026;2023-06-10T03:44:12;15.50;1.00
21207;DHT22;10761;48.532;8.026;2023-06-10T03:46:38;15.50;1.00
21207;DHT22;10761;48.532;8.026;2023-06-10T03:49:03;15.50;1.00
21207;DHT22;10761;48.532;8.026;2023-06-10T03:51:29;15.50;1.00
21207;DHT22;10761;48.532;8.026;2023-06-10T03:53:55;15.50;1.00
21207;DHT22;10761;48.532;8.026;2023-06-10T03:56:21;15.50;99.90
21207;DHT22;10761;48.532;8.026;2023-06-10T03:58:46;15.50;1.00
21207;DHT22;10761;48.532;8.026;2023-06-10T04:01:12;15.50;99.90
21207;DHT22;10761;48.532;8.026;2023-06-10T04:03:40;15.50;1.00
21207;DHT22;10761;48.532;8.026;2023-06-10T04:06:09;15.50;99.90
21207;DHT22;10761;48.532;8.026;2023-06-10T04:08:34;15.60;99.90
21207;DHT22;10761;48.532;8.026;2023-06-10T04:11:01;15.60;99.90
21207;DHT22;10761;48.532;8.026;2023-06-10T04:13:27;15.60;1.00
21207;DHT22;10761;48.532;8.026;2023-06-10T04:15:53;15.70;1.00
21207;DHT22;10761;48.532;8.026;2023-06-10T04:18:19;15.70;25.20
21207;DHT22;10761;48.532;8.026;2023-06-10T04:20:46;15.70;99.90
21207;DHT22;10761;48.532;8.026;2023-06-10T04:23:11;15.70;99.90
21207;DHT22;10761;48.532;8.026;2023-06-10T04:25:37;15.90;1.00
21207;DHT22;10761;48.532;8.026;2023-06-10T04:28:02;15.90;99.90
21207;DHT22;10761;48.532;8.026;2023-06-10T04:30:28;16.10;99.90
21207;DHT22;10761;48.532;8.026;2023-06-10T04:32:54;16.10;99.90
21207;DHT22;10761;48.532;8.026;2023-06-10T04:35:19;16.10;99.90
21207;DHT22;10761;48.532;8.026;2023-06-10T04:37:45;16.20;1.00
21207;DHT22;10761;48.532;8.026;2023-06-10T04:40:11;16.30;1.00
21207;DHT22;10761;48.532;8.026;2023-06-10T04:42:37;16.40;99.90
21207;DHT22;10761;48.532;8.026;2023-06-10T04:45:02;16.50;1.00
21207;DHT22;10761;48.532;8.026;2023-06-10T04:47:29;16.60;99.90
21207;DHT22;10761;48.532;8.026;2023-06-10T04:49:58;16.70;1.00
21207;DHT22;10761;48.532;8.026;2023-06-10T04:52:24;16.80;2.40
21207;DHT22;10761;48.532;8.026;2023-06-10T04:54:50;16.90;1.00
21207;DHT22;10761;48.532;8.026;2023-06-10T04:57:15;17.00;1.00
21207;DHT22;10761;48.532;8.026;2023-06-10T04:59:41;17.20;1.00
21207;DHT22;10761;48.532;8.026;2023-06-10T05:02:07;17.30;99.90
21207;DHT22;10761;48.532;8.026;2023-06-10T05:04:32;17.40;1.00
21207;DHT22;10761;48.532;8.026;2023-06-10T05:06:58;17.60;1.00
21207;DHT22;10761;48.532;8.026;2023-06-10T05:09:23;17.80;1.00
21207;DHT22;10761;48.532;8.026;2023-06-10T05:11:49;17.90;99.90
21207;DHT22;10761;48.532;8.026;2023-06-10T05:14:15;18.00;1.00
21207;DHT22;10761;48.532;8.026;2023-06-10T05:16:44;18.10;1.00
21207;DHT22;10761;48.532;8.026;2023-06-10T05:19:10;18.20;1.00
21207;DHT22;10761;48.532;8.026;2023-06-10T05:21:36;18.30;99.90
21207;DHT22;10761;48.532;8.026;2023-06-10T05:24:02;18.40;1.00
21207;DHT22;10761;48.532;8.026;2023-06-10T05:26:28;18.50;1.00
21207;DHT22;10761;48.532;8.026;2023-06-10T05:28:54;18.60;99.90
21207;DHT22;10761;48.532;8.026;2023-06-10T05:31:20;18.50;14.50
21207;DHT22;10761;48.532;8.026;2023-06-10T05:33:45;18.60;1.00
21207;DHT22;10761;48.532;8.026;2023-06-10T05:36:11;18.80;1.00
21207;DHT22;10761;48.532;8.026;2023-06-10T05:38:36;18.90;99.90
21207;DHT22;10761;48.532;8.026;2023-06-10T05:41:02;19.00;99.90
21207;DHT22;10761;48.532;8.026;2023-06-10T05:43:28;19.00;1.00
21207;DHT22;10761;48.532;8.026;2023-06-10T05:45:54;19.10;1.00
21207;DHT22;10761;48.532;8.026;2023-06-10T05:48:19;19.20;99.90
21207;DHT22;10761;48.532;8.026;2023-06-10T05:50:45;19.20;99.90
21207;DHT22;10761;48.532;8.026;2023-06-10T05:53:14;19.40;1.00
21207;DHT22;10761;48.532;8.026;2023-06-10T05:55:44;19.30;1.00
21207;DHT22;10761;48.532;8.026;2023-06-10T05:58:10;19.40;1.00
21207;DHT22;10761;48.532;8.026;2023-06-10T06:00:35;19.40;99.90
21207;DHT22;10761;48.532;8.026;2023-06-10T06:03:02;19.40;99.90
21207;DHT22;10761;48.532;8.026;2023-06-10T06:05:28;19.50;1.00
21207;DHT22;10761;48.532;8.026;2023-06-10T06:07:53;19.50;1.00
21207;DHT22;10761;48.532;8.026;2023-06-10T06:10:19;19.50;88.00
21207;DHT22;10761;48.532;8.026;2023-06-10T06:12:45;19.60;99.90
21207;DHT22;10761;48.532;8.026;2023-06-10T06:15:11;19.70;1.00
21207;DHT22;10761;48.532;8.026;2023-06-10T06:17:36;19.90;1.00
21207;DHT22;10761;48.532;8.026;2023-06-10T06:20:03;20.00;1.00
21207;DHT22;10761;48.532;8.026;2023-06-10T06:22:29;20.10;1.00
21207;DHT22;10761;48.532;8.026;2023-06-10T06:24:54;20.10;1.00
21207;DHT22;10761;48.532;8.026;2023-06-10T06:27:20;20.40;1.00
21207;DHT22;10761;48.532;8.026;2023-06-10T06:29:46;20.50;99.90
21207;DHT22;10761;48.532;8.026;2023-06-10T06:32:12;20.70;99.90
21207;DHT22;10761;48.532;8.026;2023-06-10T06:34:38;20.90;79.60
21207;DHT22;10761;48.532;8.026;2023-06-10T06:37:03;21.30;1.00
21207;DHT22;10761;48.532;8.026;2023-06-10T06:39:29;21.30;1.00
21207;DHT22;10761;48.532;8.026;2023-06-10T06:41:55;21.30;1.00
21207;DHT22;10761;48.532;8.026;2023-06-10T06:44:20;21.60;1.00
21207;DHT22;10761;48.532;8.026;2023-06-10T06:46:46;22.00;1.00
21207;DHT22;10761;48.532;8.026;2023-06-10T06:49:11;22.30;99.90
21207;DHT22;10761;48.532;8.026;2023-06-10T06:51:37;22.10;99.90
21207;DHT22;10761;48.532;8.026;2023-06-10T06:54:03;22.10;99.90
21207;DHT22;10761;48.532;8.026;2023-06-10T06:56:31;21.90;99.90
21207;DHT22;10761;48.532;8.026;2023-06-10T06:58:56;21.90;99.90
21207;DHT22;10761;48.532;8.026;2023-06-10T07:01:22;22.00;99.90
21207;DHT22;10761;48.532;8.026;2023-06-10T07:03:48;22.00;99.90
21207;DHT22;10761;48.532;8.026;2023-06-10T07:06:13;22.20;99.90
21207;DHT22;10761;48.532;8.026;2023-06-10T07:08:39;22.40;99.90
21207;DHT22;10761;48.532;8.026;2023-06-10T07:11:05;22.60;99.90
21207;DHT22;10761;48.532;8.026;2023-06-10T07:13:30;23.00;68.70
21207;DHT22;10761;48.532;8.026;2023-06-10T07:15:56;23.60;1.00
21207;DHT22;10761;48.532;8.026;2023-06-10T07:18:21;24.20;1.00
21207;DHT22;10761;48.532;8.026;2023-06-10T07:20:47;24.70;1.00
21207;DHT22;10761;48.532;8.026;2023-06-10T07:23:13;25.20;1.00
21207;DHT22;10761;48.532;8.026;2023-06-10T07:25:38;25.30;1.00
21207;DHT22;10761;48.532;8.026;2023-06-10T07:28:04;25.00;1.00
21207;DHT22;10761;48.532;8.026;2023-06-10T07:30:30;25.20;1.00
21207;DHT22;10761;48.532;8.026;2023-06-10T07:32:55;25.30;1.00
21207;DHT22;10761;48.532;8.026;2023-06-10T07:35:21;25.40;1.00
21207;DHT22;10761;48.532;8.026;2023-06-10T07:37:47;25.50;1.00
21207;DHT22;10761;48.532;8.026;2023-06-10T07:40:12;25.40;1.00
21207;DHT22;10761;48.532;8.026;2023-06-10T07:42:38;25.60;1.00
21207;DHT22;10761;48.532;8.026;2023-06-10T07:45:04;25.80;1.00
21207;DHT22;10761;48.532;8.026;2023-06-10T07:47:34;25.30;1.00
21207;DHT22;10761;48.532;8.026;2023-06-10T07:50:00;25.20;1.00
21207;DHT22;10761;48.532;8.026;2023-06-10T07:52:25;25.40;1.00
21207;DHT22;10761;48.532;8.026;2023-06-10T07:54:51;25.20;1.00
21207;DHT22;10761;48.532;8.026;2023-06-10T07:57:17;25.40;1.00
21207;DHT22;10761;48.532;8.026;2023-06-10T07:59:43;25.70;1.00
21207;DHT22;10761;48.532;8.026;2023-06-10T08:02:09;25.30;1.00
21207;DHT22;10761;48.532;8.026;2023-06-10T08:04:35;25.10;1.00
21207;DHT22;10761;48.532;8.026;2023-06-10T08:07:01;25.30;1.00
21207;DHT22;10761;48.532;8.026;2023-06-10T08:09:27;25.80;1.00
21207;DHT22;10761;48.532;8.026;2023-06-10T08:11:53;26.40;1.00
21207;DHT22;10761;48.532;8.026;2023-06-10T08:14:19;26.90;1.00
21207;DHT22;10761;48.532;8.026;2023-06-10T08:16:45;27.20;1.00
21207;DHT22;10761;48.532;8.026;2023-06-10T08:19:11;27.50;1.00
21207;DHT22;10761;48.532;8.026;2023-06-10T08:21:37;27.90;99.90
21207;DHT22;10761;48.532;8.026;2023-06-10T08:24:05;28.00;99.90
21207;DHT22;10761;48.532;8.026;2023-06-10T08:26:31;28.40;99.90
21207;DHT22;10761;48.532;8.026;2023-06-10T08:28:57;28.00;99.90
21207;DHT22;10761;48.532;8.026;2023-06-10T08:31:22;28.00;99.90
21207;DHT22;10761;48.532;8.026;2023-06-10T08:33:48;28.00;99.90
21207;DHT22;10761;48.532;8.026;2023-06-10T08:36:14;28.30;99.90
21207;DHT22;10761;48.532;8.026;2023-06-10T08:38:39;28.70;99.90
21207;DHT22;10761;48.532;8.026;2023-06-10T08:41:06;28.90;99.90
21207;DHT22;10761;48.532;8.026;2023-06-10T08:43:37;29.20;99.90
21207;DHT22;10761;48.532;8.026;2023-06-10T08:46:08;29.20;99.90
21207;DHT22;10761;48.532;8.026;2023-06-10T08:48:35;29.50;99.90
21207;DHT22;10761;48.532;8.026;2023-06-10T08:51:04;29.70;99.90
21207;DHT22;10761;48.532;8.026;2023-06-10T08:53:32;29.90;99.90
21207;DHT22;10761;48.532;8.026;2023-06-10T08:56:00;29.80;99.90
21207;DHT22;10761;48.532;8.026;2023-06-10T08:58:29;30.00;99.90
21207;DHT22;10761;48.532;8.026;2023-06-10T09:00:58;29.80;99.90
21207;DHT22;10761;48.532;8.026;2023-06-10T09:03:25;29.80;99.90
21207;DHT22;10761;48.532;8.026;2023-06-10T09:05:51;29.40;99.90
21207;DHT22;10761;48.532;8.026;2023-06-10T09:08:17;28.70;99.90
21207;DHT22;10761;48.532;8.026;2023-06-10T09:10:42;28.60;99.90
21207;DHT22;10761;48.532;8.026;2023-06-10T09:13:08;29.20;99.90
21207;DHT22;10761;48.532;8.026;2023-06-10T09:15:34;29.00;99.90
21207;DHT22;10761;48.532;8.026;2023-06-10T09:17:59;29.00;99.90
21207;DHT22;10761;48.532;8.026;2023-06-10T09:20:25;29.20;99.90
21207;DHT22;10761;48.532;8.026;2023-06-10T09:22:51;29.60;99.90
21207;DHT22;10761;48.532;8.026;2023-06-10T09:25:17;30.00;99.90
21207;DHT22;10761;48.532;8.026;2023-06-10T09:27:51;30.00;99.90
21207;DHT22;10761;48.532;8.026;2023-06-10T09:30:30;30.00;99.90
21207;DHT22;10761;48.532;8.026;2023-06-10T09:32:57;30.20;99.90
21207;DHT22;10761;48.532;8.026;2023-06-10T09:35:24;30.40;99.90
21207;DHT22;10761;48.532;8.026;2023-06-10T09:37:52;30.50;99.90
21207;DHT22;10761;48.532;8.026;2023-06-10T09:40:18;30.70;99.90
21207;DHT22;10761;48.532;8.026;2023-06-10T09:42:43;30.70;99.90
21207;DHT22;10761;48.532;8.026;2023-06-10T09:45:09;31.00;99.90
21207;DHT22;10761;48.532;8.026;2023-06-10T09:47:35;30.80;99.90
21207;DHT22;10761;48.532;8.026;2023-06-10T09:50:00;30.90;99.90
21207;DHT22;10761;48.532;8.026;2023-06-10T09:52:28;30.90;99.90
21207;DHT22;10761;48.532;8.026;2023-06-10T09:54:59;31.30;99.90
21207;DHT22;10761;48.532;8.026;2023-06-10T09:57:25;31.70;99.90
21207;DHT22;10761;48.532;8.026;2023-06-10T09:59:54;31.30;99.90
21207;DHT22;10761;48.532;8.026;2023-06-10T10:02:21;30.70;99.90
21207;DHT22;10761;48.532;8.026;2023-06-10T10:04:46;29.90;99.90
21207;DHT22;10761;48.532;8.026;2023-06-10T10:07:12;29.50;99.90
21207;DHT22;10761;48.532;8.026;2023-06-10T10:09:39;29.20;99.90
21207;DHT22;10761;48.532;8.026;2023-06-10T10:12:10;28.90;99.90
21207;DHT22;10761;48.532;8.026;2023-06-10T10:14:39;28.60;99.90
21207;DHT22;10761;48.532;8.026;2023-06-10T10:17:10;28.40;99.90
21207;DHT22;10761;48.532;8.026;2023-06-10T10:20:03;28.40;99.90
21207;DHT22;10761;48.532;8.026;2023-06-10T10:22:34;28.40;99.90
21207;DHT22;10761;48.532;8.026;2023-06-10T10:25:02;28.40;99.90
21207;DHT22;10761;48.532;8.026;2023-06-10T10:27:44;28.40;99.90
21207;DHT22;10761;48.532;8.026;2023-06-10T10:30:14;28.70;99.90
21207;DHT22;10761;48.532;8.026;2023-06-10T10:35:21;29.30;99.90
21207;DHT22;10761;48.532;8.026;2023-06-10T10:37:52;29.20;99.90
21207;DHT22;10761;48.532;8.026;2023-06-10T10:40:20;29.30;99.90
21207;DHT22;10761;48.532;8.026;2023-06-10T10:42:48;29.80;99.90
21207;DHT22;10761;48.532;8.026;2023-06-10T10:45:14;30.10;99.90
21207;DHT22;10761;48.532;8.026;2023-06-10T10:47:41;30.30;99.90
21207;DHT22;10761;48.532;8.026;2023-06-10T10:50:18;30.40;99.90
21207;DHT22;10761;48.532;8.026;2023-06-10T10:52:58;30.10;99.90
21207;DHT22;10761;48.532;8.026;2023-06-10T10:55:25;30.00;99.90
21207;DHT22;10761;48.532;8.026;2023-06-10T10:58:06;30.00;99.90
21207;DHT22;10761;48.532;8.026;2023-06-10T11:00:43;29.70;99.90
21207;DHT22;10761;48.532;8.026;2023-06-10T11:03:14;29.10;99.90
21207;DHT22;10761;48.532;8.026;2023-06-10T11:05:48;29.30;99.90
21207;DHT22;10761;48.532;8.026;2023-06-10T11:10:58;29.60;99.90
21207;DHT22;10761;48.532;8.026;2023-06-10T11:13:26;29.80;99.90
21207;DHT22;10761;48.532;8.026;2023-06-10T11:15:53;29.40;99.90
21207;DHT22;10761;48.532;8.026;2023-06-10T11:18:29;29.10;99.90
21207;DHT22;10761;48.532;8.026;2023-06-10T11:21:00;29.30;99.90
21207;DHT22;10761;48.532;8.026;2023-06-10T11:26:29;29.80;99.90
21207;DHT22;10761;48.532;8.026;2023-06-10T11:31:27;30.30;99.90
21207;DHT22;10761;48.532;8.026;2023-06-10T11:33:54;30.70;99.90
21207;DHT22;10761;48.532;8.026;2023-06-10T11:36:20;31.00;99.90
21207;DHT22;10761;48.532;8.026;2023-06-10T11:38:46;31.20;99.90
21207;DHT22;10761;48.532;8.026;2023-06-10T11:41:13;31.30;99.90
21207;DHT22;10761;48.532;8.026;2023-06-10T11:43:46;31.30;99.90
21207;DHT22;10761;48.532;8.026;2023-06-10T11:46:15;31.10;85.60
21207;DHT22;10761;48.532;8.026;2023-06-10T11:48:51;31.10;73.80
21207;DHT22;10761;48.532;8.026;2023-06-10T11:51:17;31.50;91.00
21207;DHT22;10761;48.532;8.026;2023-06-10T11:53:49;31.60;92.90
21207;DHT22;10761;48.532;8.026;2023-06-10T11:56:23;31.70;98.30
21207;DHT22;10761;48.532;8.026;2023-06-10T11:58:55;31.80;95.80
21207;DHT22;10761;48.532;8.026;2023-06-10T12:01:24;31.80;78.70
21207;DHT22;10761;48.532;8.026;2023-06-10T12:04:01;31.80;74.80
21207;DHT22;10761;48.532;8.026;2023-06-10T12:06:27;31.90;67.70
21207;DHT22;10761;48.532;8.026;2023-06-10T12:08:53;32.10;59.30
21207;DHT22;10761;48.532;8.026;2023-06-10T12:11:20;31.80;49.00
21207;DHT22;10761;48.532;8.026;2023-06-10T12:13:49;32.10;75.60
21207;DHT22;10761;48.532;8.026;2023-06-10T12:16:16;32.60;63.00
21207;DHT22;10761;48.532;8.026;2023-06-10T12:18:44;32.60;44.70
21207;DHT22;10761;48.532;8.026;2023-06-10T12:24:09;32.90;7.60
21207;DHT22;10761;48.532;8.026;2023-06-10T12:26:42;33.00;1.00
21207;DHT22;10761;48.532;8.026;2023-06-10T12:29:16;33.50;1.00
21207;DHT22;10761;48.532;8.026;2023-06-10T12:32:04;34.00;1.00
21207;DHT22;10761;48.532;8.026;2023-06-10T12:34:31;34.00;1.00
21207;DHT22;10761;48.532;8.026;2023-06-10T12:36:57;33.70;1.00
21207;DHT22;10761;48.532;8.026;2023-06-10T12:39:23;33.40;1.00
21207;DHT22;10761;48.532;8.026;2023-06-10T12:41:50;33.00;1.00
21207;DHT22;10761;48.532;8.026;2023-06-10T12:44:16;33.40;1.00
21207;DHT22;10761;48.532;8.026;2023-06-10T12:46:42;33.50;1.00
21207;DHT22;10761;48.532;8.026;2023-06-10T12:49:07;33.80;1.00
21207;DHT22;10761;48.532;8.026;2023-06-10T12:51:33;34.30;1.00
21207;DHT22;10761;48.532;8.026;2023-06-10T12:54:00;34.50;1.00
21207;DHT22;10761;48.532;8.026;2023-06-10T12:56:25;34.20;1.00
21207;DHT22;10761;48.532;8.026;2023-06-10T12:58:51;34.30;1.00
21207;DHT22;10761;48.532;8.026;2023-06-10T13:01:17;34.50;1.00
21207;DHT22;10761;48.532;8.026;2023-06-10T13:03:42;34.80;1.00
21207;DHT22;10761;48.532;8.026;2023-06-10T13:06:08;34.20;1.00
21207;DHT22;10761;48.532;8.026;2023-06-10T13:08:33;34.20;1.00
21207;DHT22;10761;48.532;8.026;2023-06-10T13:10:59;33.70;1.00
21207;DHT22;10761;48.532;8.026;2023-06-10T13:13:26;32.70;1.00
21207;DHT22;10761;48.532;8.026;2023-06-10T13:15:51;32.30;1.00
21207;DHT22;10761;48.532;8.026;2023-06-10T13:18:17;32.00;1.00
21207;DHT22;10761;48.532;8.026;2023-06-10T13:20:45;31.70;1.00
21207;DHT22;10761;48.532;8.026;2023-06-10T13:23:11;31.60;1.00
21207;DHT22;10761;48.532;8.026;2023-06-10T13:25:37;31.70;1.00
21207;DHT22;10761;48.532;8.026;2023-06-10T13:28:02;31.90;1.00
21207;DHT22;10761;48.532;8.026;2023-06-10T13:30:28;31.80;1.00
21207;DHT22;10761;48.532;8.026;2023-06-10T13:32:54;31.50;1.00
21207;DHT22;10761;48.532;8.026;2023-06-10T13:35:19;31.80;1.00
21207;DHT22;10761;48.532;8.026;2023-06-10T13:37:45;32.00;6.50
21207;DHT22;10761;48.532;8.026;2023-06-10T13:40:11;31.90;1.00
21207;DHT22;10761;48.532;8.026;2023-06-10T13:42:37;31.90;1.00
21207;DHT22;10761;48.532;8.026;2023-06-10T13:45:04;31.90;1.00
21207;DHT22;10761;48.532;8.026;2023-06-10T13:47:30;31.80;1.00
21207;DHT22;10761;48.532;8.026;2023-06-10T13:49:56;31.50;1.00
21207;DHT22;10761;48.532;8.026;2023-06-10T13:52:21;30.70;1.00
21207;DHT22;10761;48.532;8.026;2023-06-10T13:54:47;30.10;1.00
21207;DHT22;10761;48.532;8.026;2023-06-10T13:57:12;29.90;1.00
21207;DHT22;10761;48.532;8.026;2023-06-10T13:59:38;29.90;1.00
21207;DHT22;10761;48.532;8.026;2023-06-10T14:02:04;30.50;1.00
21207;DHT22;10761;48.532;8.026;2023-06-10T14:04:30;31.30;1.00
21207;DHT22;10761;48.532;8.026;2023-06-10T14:06:55;32.00;1.00
21207;DHT22;10761;48.532;8.026;2023-06-10T14:09:21;32.50;1.00
21207;DHT22;10761;48.532;8.026;2023-06-10T14:11:47;32.60;1.00
21207;DHT22;10761;48.532;8.026;2023-06-10T14:14:13;33.10;1.00
21207;DHT22;10761;48.532;8.026;2023-06-10T14:16:39;33.30;1.00
21207;DHT22;10761;48.532;8.026;2023-06-10T14:19:05;32.80;1.00
21207;DHT22;10761;48.532;8.026;2023-06-10T14:21:30;31.70;1.00
21207;DHT22;10761;48.532;8.026;2023-06-10T14:23:56;31.20;1.00
21207;DHT22;10761;48.532;8.026;2023-06-10T14:26:22;31.20;1.00
21207;DHT22;10761;48.532;8.026;2023-06-10T14:28:48;31.40;1.00
21207;DHT22;10761;48.532;8.026;2023-06-10T14:31:15;31.60;1.00
21207;DHT22;10761;48.532;8.026;2023-06-10T14:33:41;31.40;1.00
21207;DHT22;10761;48.532;8.026;2023-06-10T14:36:09;30.90;1.00
21207;DHT22;10761;48.532;8.026;2023-06-10T14:38:34;30.40;1.00
21207;DHT22;10761;48.532;8.026;2023-06-10T14:41:00;30.00;1.00
21207;DHT22;10761;48.532;8.026;2023-06-10T14:43:26;29.70;1.00
21207;DHT22;10761;48.532;8.026;2023-06-10T14:45:51;29.70;1.00
21207;DHT22;10761;48.532;8.026;2023-06-10T14:48:17;30.00;1.00
21207;DHT22;10761;48.532;8.026;2023-06-10T14:50:42;30.30;1.00
21207;DHT22;10761;48.532;8.026;2023-06-10T14:53:10;30.10;1.00
21207;DHT22;10761;48.532;8.026;2023-06-10T14:55:36;29.90;1.00
21207;DHT22;10761;48.532;8.026;2023-06-10T14:58:01;29.80;1.00
21207;DHT22;10761;48.532;8.026;2023-06-10T15:00:27;29.60;1.00
21207;DHT22;10761;48.532;8.026;2023-06-10T15:02:52;29.90;1.00
21207;DHT22;10761;48.532;8.026;2023-06-10T15:05:21;29.90;1.00
21207;DHT22;10761;48.532;8.026;2023-06-10T15:07:47;30.00;1.00
21207;DHT22;10761;48.532;8.026;2023-06-10T15:10:13;30.30;1.00
21207;DHT22;10761;48.532;8.026;2023-06-10T15:12:38;30.80;1.00
21207;DHT22;10761;48.532;8.026;2023-06-10T15:15:04;31.20;1.00
21207;DHT22;10761;48.532;8.026;2023-06-10T15:17:30;31.70;1.00
21207;DHT22;10761;48.532;8.026;2023-06-10T15:19:56;31.90;1.00
21207;DHT22;10761;48.532;8.026;2023-06-10T15:22:22;31.60;1.00
21207;DHT22;10761;48.532;8.026;2023-06-10T15:24:47;31.50;1.00
21207;DHT22;10761;48.532;8.026;2023-06-10T15:27:13;31.60;1.00
21207;DHT22;10761;48.532;8.026;2023-06-10T15:29:39;31.60;1.00
21207;DHT22;10761;48.532;8.026;2023-06-10T15:32:05;31.70;1.00
21207;DHT22;10761;48.532;8.026;2023-06-10T15:34:31;31.70;1.00
21207;DHT22;10761;48.532;8.026;2023-06-10T15:36:56;31.60;1.00
21207;DHT22;10761;48.532;8.026;2023-06-10T15:39:22;31.80;1.00
21207;DHT22;10761;48.532;8.026;2023-06-10T15:41:49;31.60;1.00
21207;DHT22;10761;48.532;8.026;2023-06-10T15:44:15;31.50;1.00
21207;DHT22;10761;48.532;8.026;2023-06-10T15:46:41;31.20;1.00
21207;DHT22;10761;48.532;8.026;2023-06-10T15:49:07;30.90;1.00
21207;DHT22;10761;48.532;8.026;2023-06-10T15:51:32;30.80;1.00
21207;DHT22;10761;48.532;8.026;2023-06-10T15:53:58;30.90;1.00